Terminal Aerodrome Forecast
Issued by NWS

Home | Current Version | Previous Version | Text Only | Print | Product List | Glossary Off
Versions: 1 2 3 4 5 6 7 8 9 10 11 12 13 14 15 16 17 18 19

000
FTUS43 KGRB 200500
TAFCWA
TAF
KCWA 200535Z 2006/2106 27003KT P6SM FEW060 SCT100
      TEMPO 2006/2010 BKN060
     FM201000 31007KT P6SM SCT030 BKN050
     FM201500 32010G15KT P6SM VCSH BKN030 BKN040
     FM210000 35008KT P6SM BKN040
      AMD LTD TO CLD VIS AND WIND TIL 201200=

USA.gov is the U.S. government's official web portal to all federal, state and local government web resources and services.